sensor_id;sensor_type;location;lat;lon;timestamp;pressure;altitude;pressure_sealevel;temperature;humidity
63347;BME280;49472;49.880;8.650;2023-02-28T00:00:23;101170.38;;;6.24;40.56
63347;BME280;49472;49.880;8.650;2023-02-28T00:02:48;101168.72;;;6.23;40.56
63347;BME280;49472;49.880;8.650;2023-02-28T00:05:18;101171.13;;;6.02;40.91
63347;BME280;49472;49.880;8.650;2023-02-28T00:07:43;101172.13;;;6.22;41.00
63347;BME280;49472;49.880;8.650;2023-02-28T00:10:12;101169.19;;;6.33;41.53
63347;BME280;49472;49.880;8.650;2023-02-28T00:12:38;101168.53;;;6.27;41.22
63347;BME280;49472;49.880;8.650;2023-02-28T00:15:09;101171.47;;;5.68;41.93
63347;BME280;49472;49.880;8.650;2023-02-28T00:17:34;101175.47;;;5.75;41.09
63347;BME280;49472;49.880;8.650;2023-02-28T00:20:00;101167.63;;;5.56;42.32
63347;BME280;49472;49.880;8.650;2023-02-28T00:22:38;101169.91;;;5.64;41.58
63347;BME280;49472;49.880;8.650;2023-02-28T00:25:03;101172.13;;;5.73;41.96
63347;BME280;49472;49.880;8.650;2023-02-28T00:27:29;101173.84;;;5.73;41.78
63347;BME280;49472;49.880;8.650;2023-02-28T00:29:55;101170.66;;;5.68;42.65
63347;BME280;49472;49.880;8.650;2023-02-28T00:32:20;101171.47;;;5.43;43.16
63347;BME280;49472;49.880;8.650;2023-02-28T00:34:45;101177.44;;;5.42;42.66
63347;BME280;49472;49.880;8.650;2023-02-28T00:37:11;101170.84;;;5.61;42.16
63347;BME280;49472;49.880;8.650;2023-02-28T00:39:37;101170.03;;;5.61;42.63
63347;BME280;49472;49.880;8.650;2023-02-28T00:42:04;101169.78;;;5.67;42.16
63347;BME280;49472;49.880;8.650;2023-02-28T00:44:30;101170.44;;;5.49;42.88
63347;BME280;49472;49.880;8.650;2023-02-28T00:46:56;101172.53;;;5.36;42.80
63347;BME280;49472;49.880;8.650;2023-02-28T00:49:22;101174.50;;;5.28;43.98
63347;BME280;49472;49.880;8.650;2023-02-28T00:51:48;101175.50;;;5.49;43.58
63347;BME280;49472;49.880;8.650;2023-02-28T00:54:14;101175.66;;;5.44;42.43
63347;BME280;49472;49.880;8.650;2023-02-28T00:56:39;101185.31;;;5.33;43.32
63347;BME280;49472;49.880;8.650;2023-02-28T00:59:05;101176.25;;;5.52;43.17
63347;BME280;49472;49.880;8.650;2023-02-28T01:01:30;101180.00;;;5.14;44.07
63347;BME280;49472;49.880;8.650;2023-02-28T01:03:56;101175.06;;;5.36;42.57
63347;BME280;49472;49.880;8.650;2023-02-28T01:06:21;101177.88;;;5.53;42.57
63347;BME280;49472;49.880;8.650;2023-02-28T01:08:46;101179.97;;;5.42;42.90
63347;BME280;49472;49.880;8.650;2023-02-28T01:11:14;101176.31;;;5.24;43.27
63347;BME280;49472;49.880;8.650;2023-02-28T01:13:40;101173.28;;;5.39;42.77
63347;BME280;49472;49.880;8.650;2023-02-28T01:16:05;101174.97;;;5.39;43.10
63347;BME280;49472;49.880;8.650;2023-02-28T01:18:31;101171.56;;;5.40;43.05
63347;BME280;49472;49.880;8.650;2023-02-28T01:20:56;101165.44;;;5.20;44.00
63347;BME280;49472;49.880;8.650;2023-02-28T01:23:22;101164.91;;;5.37;43.89
63347;BME280;49472;49.880;8.650;2023-02-28T01:25:49;101170.75;;;5.39;43.06
63347;BME280;49472;49.880;8.650;2023-02-28T01:28:15;101169.69;;;5.20;44.04
63347;BME280;49472;49.880;8.650;2023-02-28T01:30:40;101167.53;;;5.08;44.54
63347;BME280;49472;49.880;8.650;2023-02-28T01:33:05;101162.66;;;5.28;44.05
63347;BME280;49472;49.880;8.650;2023-02-28T01:35:35;101159.72;;;5.14;44.13
63347;BME280;49472;49.880;8.650;2023-02-28T01:38:01;101158.38;;;5.30;44.35
63347;BME280;49472;49.880;8.650;2023-02-28T01:40:26;101163.47;;;5.29;43.89
63347;BME280;49472;49.880;8.650;2023-02-28T01:42:52;101160.84;;;5.32;43.66
63347;BME280;49472;49.880;8.650;2023-02-28T01:45:27;101162.06;;;4.93;44.30
63347;BME280;49472;49.880;8.650;2023-02-28T01:47:56;101155.06;;;5.02;44.16
63347;BME280;49472;49.880;8.650;2023-02-28T01:50:25;101155.41;;;5.17;44.35
63347;BME280;49472;49.880;8.650;2023-02-28T01:52:53;101163.41;;;5.32;44.22
63347;BME280;49472;49.880;8.650;2023-02-28T01:55:20;101148.19;;;5.32;43.99
63347;BME280;49472;49.880;8.650;2023-02-28T01:57:52;101151.53;;;5.32;44.43
63347;BME280;49472;49.880;8.650;2023-02-28T02:00:23;101144.88;;;5.03;44.81
63347;BME280;49472;49.880;8.650;2023-02-28T02:02:51;101145.78;;;5.00;45.04
63347;BME280;49472;49.880;8.650;2023-02-28T02:05:23;101144.97;;;4.73;45.64
63347;BME280;49472;49.880;8.650;2023-02-28T02:07:52;101143.22;;;5.02;44.66
63347;BME280;49472;49.880;8.650;2023-02-28T02:10:22;101144.63;;;5.11;44.33
63347;BME280;49472;49.880;8.650;2023-02-28T02:19:25;101138.84;;;5.07;44.71
63347;BME280;49472;49.880;8.650;2023-02-28T02:25:16;101122.00;;;4.78;45.88
63347;BME280;49472;49.880;8.650;2023-02-28T02:35:54;101129.66;;;4.76;46.50
63347;BME280;49472;49.880;8.650;2023-02-28T02:38:43;101125.22;;;4.83;46.17
63347;BME280;49472;49.880;8.650;2023-02-28T02:41:35;101127.31;;;4.70;46.24
63347;BME280;49472;49.880;8.650;2023-02-28T02:44:21;101126.06;;;4.84;46.48
63347;BME280;49472;49.880;8.650;2023-02-28T02:46:51;101127.63;;;4.88;45.58
63347;BME280;49472;49.880;8.650;2023-02-28T02:49:27;101124.38;;;4.84;45.64
63347;BME280;49472;49.880;8.650;2023-02-28T02:51:54;101126.66;;;4.92;45.28
63347;BME280;49472;49.880;8.650;2023-02-28T02:54:25;101122.06;;;4.76;46.96
63347;BME280;49472;49.880;8.650;2023-02-28T02:56:55;101122.41;;;4.92;45.95
63347;BME280;49472;49.880;8.650;2023-02-28T02:59:23;101130.34;;;4.82;45.55
63347;BME280;49472;49.880;8.650;2023-02-28T03:01:52;101133.59;;;4.85;45.74
63347;BME280;49472;49.880;8.650;2023-02-28T03:04:21;101135.19;;;4.89;46.03
63347;BME280;49472;49.880;8.650;2023-02-28T03:06:47;101132.78;;;4.85;45.57
63347;BME280;49472;49.880;8.650;2023-02-28T03:09:12;101132.94;;;4.52;46.67
63347;BME280;49472;49.880;8.650;2023-02-28T03:11:40;101140.72;;;4.74;45.96
63347;BME280;49472;49.880;8.650;2023-02-28T03:19:44;101128.78;;;4.77;45.75
63347;BME280;49472;49.880;8.650;2023-02-28T03:22:40;101128.16;;;4.71;46.00
63347;BME280;49472;49.880;8.650;2023-02-28T03:28:04;101136.81;;;4.64;46.96
63347;BME280;49472;49.880;8.650;2023-02-28T03:30:43;101129.59;;;4.51;47.02
63347;BME280;49472;49.880;8.650;2023-02-28T03:33:17;101132.53;;;4.66;46.88
63347;BME280;49472;49.880;8.650;2023-02-28T03:35:51;101122.50;;;4.89;45.49
63347;BME280;49472;49.880;8.650;2023-02-28T03:38:24;101122.88;;;4.77;45.97
63347;BME280;49472;49.880;8.650;2023-02-28T03:41:00;101127.94;;;4.50;47.33
63347;BME280;49472;49.880;8.650;2023-02-28T03:43:32;101127.66;;;4.60;46.74
63347;BME280;49472;49.880;8.650;2023-02-28T03:46:01;101129.84;;;4.70;47.01
63347;BME280;49472;49.880;8.650;2023-02-28T03:48:38;101128.50;;;4.87;46.45
63347;BME280;49472;49.880;8.650;2023-02-28T03:51:08;101126.25;;;4.77;46.57
63347;BME280;49472;49.880;8.650;2023-02-28T03:53:39;101132.00;;;4.83;45.67
63347;BME280;49472;49.880;8.650;2023-02-28T03:56:11;101138.06;;;4.78;46.33
63347;BME280;49472;49.880;8.650;2023-02-28T03:58:46;101138.88;;;4.79;46.16
63347;BME280;49472;49.880;8.650;2023-02-28T04:01:37;101138.13;;;4.75;47.22
63347;BME280;49472;49.880;8.650;2023-02-28T04:04:03;101144.28;;;4.68;46.35
63347;BME280;49472;49.880;8.650;2023-02-28T04:06:31;101139.69;;;4.53;47.37
63347;BME280;49472;49.880;8.650;2023-02-28T04:08:57;101138.69;;;4.57;46.72
63347;BME280;49472;49.880;8.650;2023-02-28T04:11:29;101142.38;;;4.17;48.54
63347;BME280;49472;49.880;8.650;2023-02-28T04:13:57;101138.31;;;4.43;47.53
63347;BME280;49472;49.880;8.650;2023-02-28T04:16:22;101137.84;;;4.58;47.20
63347;BME280;49472;49.880;8.650;2023-02-28T04:18:48;101141.28;;;4.55;47.03
63347;BME280;49472;49.880;8.650;2023-02-28T04:21:13;101141.75;;;4.68;47.13
63347;BME280;49472;49.880;8.650;2023-02-28T04:23:39;101143.97;;;4.51;47.83
63347;BME280;49472;49.880;8.650;2023-02-28T04:26:04;101137.28;;;4.48;48.04
63347;BME280;49472;49.880;8.650;2023-02-28T04:28:31;101144.56;;;4.59;47.42
63347;BME280;49472;49.880;8.650;2023-02-28T04:30:58;101139.44;;;4.61;47.87
63347;BME280;49472;49.880;8.650;2023-02-28T04:33:24;101137.84;;;4.58;47.95
63347;BME280;49472;49.880;8.650;2023-02-28T04:36:06;101135.56;;;4.49;48.28
63347;BME280;49472;49.880;8.650;2023-02-28T04:38:34;101138.94;;;4.49;47.96
63347;BME280;49472;49.880;8.650;2023-02-28T04:41:00;101135.66;;;4.74;47.55
63347;BME280;49472;49.880;8.650;2023-02-28T04:43:27;101141.44;;;4.51;48.43
63347;BME280;49472;49.880;8.650;2023-02-28T04:45:53;101136.94;;;4.59;47.81
63347;BME280;49472;49.880;8.650;2023-02-28T04:48:21;101137.44;;;4.42;48.09
63347;BME280;49472;49.880;8.650;2023-02-28T04:50:46;101140.88;;;4.41;49.10
63347;BME280;49472;49.880;8.650;2023-02-28T04:53:12;101144.31;;;4.39;48.40
63347;BME280;49472;49.880;8.650;2023-02-28T04:55:37;101142.34;;;4.48;47.67
63347;BME280;49472;49.880;8.650;2023-02-28T04:58:05;101137.84;;;4.58;47.25
63347;BME280;49472;49.880;8.650;2023-02-28T05:00:30;101141.19;;;4.30;48.40
63347;BME280;49472;49.880;8.650;2023-02-28T05:02:55;101138.91;;;4.51;46.98
63347;BME280;49472;49.880;8.650;2023-02-28T05:05:21;101139.59;;;4.56;47.44
63347;BME280;49472;49.880;8.650;2023-02-28T05:07:46;101140.19;;;4.64;46.83
63347;BME280;49472;49.880;8.650;2023-02-28T05:10:11;101144.41;;;4.35;48.24
63347;BME280;49472;49.880;8.650;2023-02-28T05:12:37;101142.16;;;4.54;46.93
63347;BME280;49472;49.880;8.650;2023-02-28T05:15:04;101148.78;;;4.30;47.57
63347;BME280;49472;49.880;8.650;2023-02-28T05:17:30;101148.84;;;4.27;48.24
63347;BME280;49472;49.880;8.650;2023-02-28T05:19:55;101148.63;;;4.35;47.33
63347;BME280;49472;49.880;8.650;2023-02-28T05:22:20;101142.72;;;4.34;47.89
63347;BME280;49472;49.880;8.650;2023-02-28T05:24:46;101144.56;;;4.29;48.25
63347;BME280;49472;49.880;8.650;2023-02-28T05:27:11;101141.66;;;4.43;47.24
63347;BME280;49472;49.880;8.650;2023-02-28T05:29:36;101147.72;;;4.38;47.92
63347;BME280;49472;49.880;8.650;2023-02-28T05:32:11;101150.22;;;4.39;47.86
63347;BME280;49472;49.880;8.650;2023-02-28T05:34:38;101144.06;;;4.48;47.83
63347;BME280;49472;49.880;8.650;2023-02-28T05:37:04;101139.03;;;4.46;47.67
63347;BME280;49472;49.880;8.650;2023-02-28T05:39:30;101145.09;;;4.41;47.88
63347;BME280;49472;49.880;8.650;2023-02-28T05:41:55;101146.19;;;4.32;48.08
63347;BME280;49472;49.880;8.650;2023-02-28T05:44:20;101150.97;;;4.43;47.84
63347;BME280;49472;49.880;8.650;2023-02-28T05:46:45;101152.03;;;4.34;48.11
63347;BME280;49472;49.880;8.650;2023-02-28T05:49:11;101146.44;;;4.52;47.17
63347;BME280;49472;49.880;8.650;2023-02-28T05:51:36;101156.16;;;4.38;47.66
63347;BME280;49472;49.880;8.650;2023-02-28T05:54:05;101160.44;;;4.36;47.98
63347;BME280;49472;49.880;8.650;2023-02-28T05:56:30;101159.63;;;4.34;47.70
63347;BME280;49472;49.880;8.650;2023-02-28T05:58:55;101163.69;;;4.40;47.63
63347;BME280;49472;49.880;8.650;2023-02-28T06:01:25;101158.50;;;4.44;47.61
63347;BME280;49472;49.880;8.650;2023-02-28T06:03:55;101163.44;;;4.19;48.24
63347;BME280;49472;49.880;8.650;2023-02-28T06:06:20;101169.38;;;4.48;47.76
63347;BME280;49472;49.880;8.650;2023-02-28T06:08:46;101162.97;;;4.36;48.32
63347;BME280;49472;49.880;8.650;2023-02-28T06:11:11;101170.34;;;4.44;47.52
63347;BME280;49472;49.880;8.650;2023-02-28T06:13:37;101168.22;;;4.58;47.00
63347;BME280;49472;49.880;8.650;2023-02-28T06:16:02;101174.00;;;4.33;47.88
63347;BME280;49472;49.880;8.650;2023-02-28T06:18:28;101168.88;;;4.35;47.88
63347;BME280;49472;49.880;8.650;2023-02-28T06:20:54;101176.47;;;4.35;48.30
63347;BME280;49472;49.880;8.650;2023-02-28T06:23:20;101178.19;;;4.34;47.83
63347;BME280;49472;49.880;8.650;2023-02-28T06:25:46;101177.25;;;4.37;47.90
63347;BME280;49472;49.880;8.650;2023-02-28T06:28:12;101178.63;;;4.49;47.36
63347;BME280;49472;49.880;8.650;2023-02-28T06:30:38;101171.75;;;4.52;47.27
63347;BME280;49472;49.880;8.650;2023-02-28T06:33:03;101173.59;;;4.47;47.23
63347;BME280;49472;49.880;8.650;2023-02-28T06:35:28;101181.22;;;4.18;48.21
63347;BME280;49472;49.880;8.650;2023-02-28T06:37:54;101179.19;;;4.29;47.53
63347;BME280;49472;49.880;8.650;2023-02-28T06:40:20;101182.25;;;4.40;47.42
63347;BME280;49472;49.880;8.650;2023-02-28T06:42:45;101180.22;;;4.51;47.64
63347;BME280;49472;49.880;8.650;2023-02-28T06:45:11;101187.97;;;4.47;47.51
63347;BME280;49472;49.880;8.650;2023-02-28T06:47:38;101184.28;;;4.27;48.39
63347;BME280;49472;49.880;8.650;2023-02-28T06:50:04;101194.84;;;4.42;48.57
63347;BME280;49472;49.880;8.650;2023-02-28T06:52:29;101188.25;;;4.38;48.13
63347;BME280;49472;49.880;8.650;2023-02-28T06:54:55;101193.13;;;4.44;48.04
63347;BME280;49472;49.880;8.650;2023-02-28T06:57:29;101194.50;;;4.54;47.53
63347;BME280;49472;49.880;8.650;2023-02-28T06:59:59;101192.25;;;4.73;47.25
63347;BME280;49472;49.880;8.650;2023-02-28T07:02:24;101203.63;;;4.60;47.54
63347;BME280;49472;49.880;8.650;2023-02-28T07:04:50;101199.91;;;4.71;47.25
63347;BME280;49472;49.880;8.650;2023-02-28T07:07:15;101203.63;;;4.60;47.83
63347;BME280;49472;49.880;8.650;2023-02-28T07:09:40;101198.75;;;4.82;47.14
63347;BME280;49472;49.880;8.650;2023-02-28T07:12:06;101192.13;;;4.77;47.51
63347;BME280;49472;49.880;8.650;2023-02-28T07:14:31;101197.66;;;4.62;47.74
63347;BME280;49472;49.880;8.650;2023-02-28T07:16:56;101199.34;;;4.90;46.98
63347;BME280;49472;49.880;8.650;2023-02-28T07:19:22;101199.69;;;5.06;46.60
63347;BME280;49472;49.880;8.650;2023-02-28T07:21:47;101197.53;;;4.93;47.03
63347;BME280;49472;49.880;8.650;2023-02-28T07:24:12;101204.91;;;5.01;47.04
63347;BME280;49472;49.880;8.650;2023-02-28T07:26:40;101199.09;;;4.99;47.04
63347;BME280;49472;49.880;8.650;2023-02-28T07:29:06;101200.25;;;4.89;46.89
63347;BME280;49472;49.880;8.650;2023-02-28T07:31:31;101204.25;;;5.22;46.73
63347;BME280;49472;49.880;8.650;2023-02-28T07:33:56;101201.50;;;5.02;46.97
63347;BME280;49472;49.880;8.650;2023-02-28T07:36:21;101198.69;;;5.11;46.42
63347;BME280;49472;49.880;8.650;2023-02-28T07:38:48;101209.56;;;5.15;46.28
63347;BME280;49472;49.880;8.650;2023-02-28T07:41:19;101202.19;;;5.34;46.26
63347;BME280;49472;49.880;8.650;2023-02-28T07:43:46;101204.09;;;5.27;46.38
63347;BME280;49472;49.880;8.650;2023-02-28T07:46:14;101199.06;;;5.52;45.92
63347;BME280;49472;49.880;8.650;2023-02-28T07:48:41;101196.16;;;5.63;45.81
63347;BME280;49472;49.880;8.650;2023-02-28T07:51:06;101205.50;;;5.62;45.45
63347;BME280;49472;49.880;8.650;2023-02-28T07:53:31;101208.31;;;5.53;45.30
63347;BME280;49472;49.880;8.650;2023-02-28T07:55:58;101206.88;;;5.71;45.38
63347;BME280;49472;49.880;8.650;2023-02-28T07:58:24;101199.41;;;5.92;44.79
63347;BME280;49472;49.880;8.650;2023-02-28T08:00:50;101205.78;;;5.78;45.10
63347;BME280;49472;49.880;8.650;2023-02-28T08:03:21;101208.44;;;6.00;44.90
63347;BME280;49472;49.880;8.650;2023-02-28T08:05:46;101206.88;;;6.21;44.48
63347;BME280;49472;49.880;8.650;2023-02-28T08:08:13;101212.16;;;6.15;44.20
63347;BME280;49472;49.880;8.650;2023-02-28T08:10:39;101205.66;;;6.53;43.93
63347;BME280;49472;49.880;8.650;2023-02-28T08:13:05;101200.78;;;6.71;43.58
63347;BME280;49472;49.880;8.650;2023-02-28T08:15:30;101203.28;;;6.72;43.60
63347;BME280;49472;49.880;8.650;2023-02-28T08:17:56;101198.06;;;6.53;42.93
63347;BME280;49472;49.880;8.650;2023-02-28T08:20:22;101198.84;;;6.78;43.31
63347;BME280;49472;49.880;8.650;2023-02-28T08:22:48;101197.59;;;7.10;42.67
63347;BME280;49472;49.880;8.650;2023-02-28T08:25:13;101197.31;;;7.17;41.96
63347;BME280;49472;49.880;8.650;2023-02-28T08:27:39;101204.66;;;7.24;41.97
63347;BME280;49472;49.880;8.650;2023-02-28T08:30:05;101210.56;;;7.46;41.95
63347;BME280;49472;49.880;8.650;2023-02-28T08:32:32;101197.75;;;7.48;41.89
63347;BME280;49472;49.880;8.650;2023-02-28T08:34:58;101197.09;;;7.63;41.85
63347;BME280;49472;49.880;8.650;2023-02-28T08:37:23;101199.47;;;7.47;41.56
63347;BME280;49472;49.880;8.650;2023-02-28T08:39:49;101197.25;;;7.39;42.15
63347;BME280;49472;49.880;8.650;2023-02-28T08:42:14;101193.38;;;7.51;41.50
63347;BME280;49472;49.880;8.650;2023-02-28T08:44:39;101188.94;;;7.14;41.52
63347;BME280;49472;49.880;8.650;2023-02-28T08:47:05;101185.97;;;7.25;40.96
63347;BME280;49472;49.880;8.650;2023-02-28T08:49:31;101186.91;;;7.22;41.52
63347;BME280;49472;49.880;8.650;2023-02-28T08:51:56;101190.00;;;7.30;40.98
63347;BME280;49472;49.880;8.650;2023-02-28T08:54:22;101192.00;;;7.22;40.88
63347;BME280;49472;49.880;8.650;2023-02-28T08:56:48;101195.72;;;7.56;41.46
63347;BME280;49472;49.880;8.650;2023-02-28T08:59:13;101187.34;;;7.54;40.58
63347;BME280;49472;49.880;8.650;2023-02-28T09:01:39;101193.88;;;7.59;40.30
63347;BME280;49472;49.880;8.650;2023-02-28T09:04:06;101194.19;;;7.52;40.23
63347;BME280;49472;49.880;8.650;2023-02-28T09:06:34;101193.88;;;7.59;39.93
63347;BME280;49472;49.880;8.650;2023-02-28T09:09:00;101185.28;;;7.62;40.02
63347;BME280;49472;49.880;8.650;2023-02-28T09:11:26;101187.72;;;8.04;39.74
63347;BME280;49472;49.880;8.650;2023-02-28T09:13:52;101176.91;;;7.99;39.87
63347;BME280;49472;49.880;8.650;2023-02-28T09:16:18;101176.44;;;8.10;39.47
63347;BME280;49472;49.880;8.650;2023-02-28T09:18:43;101172.00;;;7.95;39.50
63347;BME280;49472;49.880;8.650;2023-02-28T09:21:12;101180.75;;;8.08;39.31
63347;BME280;49472;49.880;8.650;2023-02-28T09:23:43;101176.72;;;8.23;39.22
63347;BME280;49472;49.880;8.650;2023-02-28T09:26:17;101173.88;;;8.10;39.35
63347;BME280;49472;49.880;8.650;2023-02-28T09:28:42;101178.09;;;8.30;39.22
63347;BME280;49472;49.880;8.650;2023-02-28T09:31:13;101178.16;;;8.29;39.47
63347;BME280;49472;49.880;8.650;2023-02-28T09:33:39;101176.03;;;8.94;38.73
63347;BME280;49472;49.880;8.650;2023-02-28T09:36:05;101183.56;;;9.14;38.63
63347;BME280;49472;49.880;8.650;2023-02-28T09:38:30;101179.38;;;8.77;38.52
63347;BME280;49472;49.880;8.650;2023-02-28T09:40:58;101182.84;;;9.10;37.88
63347;BME280;49472;49.880;8.650;2023-02-28T09:43:27;101170.09;;;8.76;38.32
63347;BME280;49472;49.880;8.650;2023-02-28T09:46:02;101172.50;;;8.96;37.64
63347;BME280;49472;49.880;8.650;2023-02-28T09:48:35;101175.81;;;9.16;37.50
63347;BME280;49472;49.880;8.650;2023-02-28T09:51:04;101172.81;;;9.07;37.62
63347;BME280;49472;49.880;8.650;2023-02-28T09:53:33;101175.59;;;8.85;37.84
63347;BME280;49472;49.880;8.650;2023-02-28T09:56:17;101177.44;;;9.69;37.06
63347;BME280;49472;49.880;8.650;2023-02-28T10:01:16;101176.22;;;9.76;36.46
63347;BME280;49472;49.880;8.650;2023-02-28T10:04:00;101175.53;;;9.90;35.52
63347;BME280;49472;49.880;8.650;2023-02-28T10:06:30;101180.47;;;9.93;35.73
63347;BME280;49472;49.880;8.650;2023-02-28T10:09:11;101179.75;;;9.73;35.28
63347;BME280;49472;49.880;8.650;2023-02-28T10:11:39;101185.47;;;9.94;35.82
63347;BME280;49472;49.880;8.650;2023-02-28T10:14:19;101186.41;;;10.25;34.77
63347;BME280;49472;49.880;8.650;2023-02-28T10:16:59;101176.97;;;10.43;34.16
63347;BME280;49472;49.880;8.650;2023-02-28T10:22:17;101163.84;;;11.11;34.41
63347;BME280;49472;49.880;8.650;2023-02-28T10:24:47;101177.41;;;10.51;34.00
63347;BME280;49472;49.880;8.650;2023-02-28T10:27:22;101182.81;;;10.13;34.19
63347;BME280;49472;49.880;8.650;2023-02-28T10:29:53;101183.53;;;9.49;34.53
63347;BME280;49472;49.880;8.650;2023-02-28T10:32:27;101183.53;;;9.49;35.35
63347;BME280;49472;49.880;8.650;2023-02-28T10:35:11;101186.31;;;9.62;34.96
63347;BME280;49472;49.880;8.650;2023-02-28T10:37:41;101190.75;;;9.91;35.07
63347;BME280;49472;49.880;8.650;2023-02-28T10:40:27;101182.91;;;9.94;34.33
63347;BME280;49472;49.880;8.650;2023-02-28T10:45:22;101175.03;;;9.99;34.18
63347;BME280;49472;49.880;8.650;2023-02-28T10:50:37;101171.84;;;10.75;33.55
63347;BME280;49472;49.880;8.650;2023-02-28T10:55:35;101179.84;;;10.21;33.58
63347;BME280;49472;49.880;8.650;2023-02-28T10:58:00;101173.91;;;10.20;33.83
63347;BME280;49472;49.880;8.650;2023-02-28T11:00:32;101174.47;;;10.89;33.28
63347;BME280;49472;49.880;8.650;2023-02-28T11:02:59;101163.03;;;10.64;33.11
63347;BME280;49472;49.880;8.650;2023-02-28T11:05:32;101158.72;;;10.81;32.32
63347;BME280;49472;49.880;8.650;2023-02-28T11:08:14;101163.63;;;11.00;33.50
63347;BME280;49472;49.880;8.650;2023-02-28T11:10:46;101164.53;;;10.99;32.95
63347;BME280;49472;49.880;8.650;2023-02-28T11:13:20;101166.91;;;10.72;33.08
63347;BME280;49472;49.880;8.650;2023-02-28T11:15:54;101172.09;;;10.70;33.40
63347;BME280;49472;49.880;8.650;2023-02-28T11:18:30;101158.72;;;10.81;33.48
63347;BME280;49472;49.880;8.650;2023-02-28T11:20:59;101161.25;;;10.51;34.25
63347;BME280;49472;49.880;8.650;2023-02-28T11:23:29;101152.25;;;10.59;33.27
63347;BME280;49472;49.880;8.650;2023-02-28T11:26:01;101154.41;;;10.97;33.09
63347;BME280;49472;49.880;8.650;2023-02-28T11:28:30;101156.53;;;11.05;33.21
63347;BME280;49472;49.880;8.650;2023-02-28T11:31:15;101163.63;;;11.00;33.05
63347;BME280;49472;49.880;8.650;2023-02-28T11:33:52;101142.88;;;11.63;32.20
63347;BME280;49472;49.880;8.650;2023-02-28T11:36:21;101145.13;;;11.39;32.80
63347;BME280;49472;49.880;8.650;2023-02-28T11:38:51;101142.88;;;11.49;32.06
63347;BME280;49472;49.880;8.650;2023-02-28T11:41:47;101137.66;;;11.79;32.17
63347;BME280;49472;49.880;8.650;2023-02-28T11:50:07;101147.22;;;14.02;29.88
63347;BME280;49472;49.880;8.650;2023-02-28T11:52:48;101140.00;;;14.07;29.73
63347;BME280;49472;49.880;8.650;2023-02-28T11:55:37;101135.72;;;14.19;29.10
63347;BME280;49472;49.880;8.650;2023-02-28T12:01:20;101140.47;;;15.20;28.32
63347;BME280;49472;49.880;8.650;2023-02-28T12:09:28;101120.94;;;15.62;27.10
63347;BME280;49472;49.880;8.650;2023-02-28T12:12:07;101130.50;;;16.81;26.06
63347;BME280;49472;49.880;8.650;2023-02-28T12:17:44;101145.69;;;17.17;26.22
63347;BME280;49472;49.880;8.650;2023-02-28T12:23:00;101130.78;;;17.82;24.43
63347;BME280;49472;49.880;8.650;2023-02-28T12:25:38;101118.53;;;17.84;24.74
63347;BME280;49472;49.880;8.650;2023-02-28T12:28:10;101114.50;;;17.70;25.42
63347;BME280;49472;49.880;8.650;2023-02-28T12:30:43;101117.50;;;18.64;23.98
63347;BME280;49472;49.880;8.650;2023-02-28T12:33:14;101126.66;;;19.35;24.36
63347;BME280;49472;49.880;8.650;2023-02-28T12:35:48;101138.22;;;18.54;24.92
63347;BME280;49472;49.880;8.650;2023-02-28T12:38:19;101128.81;;;18.82;24.20
63347;BME280;49472;49.880;8.650;2023-02-28T12:40:52;101125.31;;;20.31;23.11
63347;BME280;49472;49.880;8.650;2023-02-28T12:43:19;101111.94;;;20.08;23.80
63347;BME280;49472;49.880;8.650;2023-02-28T12:46:11;101109.16;;;20.81;22.89
63347;BME280;49472;49.880;8.650;2023-02-28T12:48:44;101106.81;;;20.96;23.36
63347;BME280;49472;49.880;8.650;2023-02-28T12:51:12;101103.84;;;20.91;22.45
63347;BME280;49472;49.880;8.650;2023-02-28T12:59:27;101099.94;;;20.87;22.73
63347;BME280;49472;49.880;8.650;2023-02-28T13:02:09;101099.69;;;20.36;22.93
63347;BME280;49472;49.880;8.650;2023-02-28T13:07:48;101102.50;;;20.79;22.91
63347;BME280;49472;49.880;8.650;2023-02-28T13:10:18;101098.06;;;20.35;23.34
63347;BME280;49472;49.880;8.650;2023-02-28T13:12:49;101092.28;;;20.86;22.39
63347;BME280;49472;49.880;8.650;2023-02-28T13:15:25;101094.47;;;21.75;22.44
63347;BME280;49472;49.880;8.650;2023-02-28T13:17:55;101084.97;;;22.17;21.95
63347;BME280;49472;49.880;8.650;2023-02-28T13:20:35;101101.00;;;21.79;21.48
63347;BME280;49472;49.880;8.650;2023-02-28T13:23:01;101097.81;;;22.10;21.87
63347;BME280;49472;49.880;8.650;2023-02-28T13:27:59;101104.56;;;21.70;21.39
63347;BME280;49472;49.880;8.650;2023-02-28T13:33:26;101093.44;;;20.91;22.52
63347;BME280;49472;49.880;8.650;2023-02-28T13:38:50;101097.41;;;21.30;21.73
63347;BME280;49472;49.880;8.650;2023-02-28T13:46:27;101078.06;;;22.89;21.95
63347;BME280;49472;49.880;8.650;2023-02-28T13:48:52;101088.66;;;21.89;20.52
63347;BME280;49472;49.880;8.650;2023-02-28T13:51:37;101079.59;;;22.59;20.62
63347;BME280;49472;49.880;8.650;2023-02-28T14:02:45;101081.03;;;21.96;21.30
63347;BME280;49472;49.880;8.650;2023-02-28T14:05:15;101078.75;;;22.09;20.41
63347;BME280;49472;49.880;8.650;2023-02-28T14:07:48;101074.03;;;22.79;20.63
63347;BME280;49472;49.880;8.650;2023-02-28T14:10:37;101070.97;;;22.59;20.53
63347;BME280;49472;49.880;8.650;2023-02-28T14:15:58;101068.75;;;23.11;19.88
63347;BME280;49472;49.880;8.650;2023-02-28T14:18:32;101064.41;;;22.71;20.52
63347;BME280;49472;49.880;8.650;2023-02-28T14:24:07;101073.19;;;21.80;20.30
63347;BME280;49472;49.880;8.650;2023-02-28T14:37:40;101071.09;;;21.92;21.42
63347;BME280;49472;49.880;8.650;2023-02-28T14:40:19;101064.06;;;21.25;21.40
63347;BME280;49472;49.880;8.650;2023-02-28T14:42:48;101068.31;;;21.85;21.38
63347;BME280;49472;49.880;8.650;2023-02-28T14:45:21;101056.97;;;22.43;21.04
63347;BME280;49472;49.880;8.650;2023-02-28T14:47:49;101060.63;;;23.37;20.54
63347;BME280;49472;49.880;8.650;2023-02-28T14:50:20;101060.00;;;21.73;20.90
63347;BME280;49472;49.880;8.650;2023-02-28T14:52:47;101048.88;;;23.42;20.96
63347;BME280;49472;49.880;8.650;2023-02-28T14:55:17;101052.88;;;23.83;20.83